Time;durP1;ratioP1;P1;durP2;ratioP2;P2;SDS_P1;SDS_P2;PMS_P1;PMS_P2;Temp;Humidity;BMP_temperature;BMP_pressure;BME280_temperature;BME280_humidity;BME280_pressure;Samples;Min_cycle;Max_cycle;Signal;HPM_P1;HPM_P2
2023/04/28 00:00:26;;;;;;;9.30;5.18;;;5.70;99.90;;;;;;5050930;28;20103;-59
2023/04/28 00:02:52;;;;;;;11.77;5.80;;;5.70;99.90;;;;;;5049493;28;20037;-59
2023/04/28 00:05:19;;;;;;;7.82;4.90;;;5.70;99.90;;;;;;5051277;28;20048;-59
2023/04/28 00:07:44;;;;;;;8.38;4.85;;;5.70;99.90;;;;;;5051617;28;20433;-59
2023/04/28 00:10:11;;;;;;;9.63;5.45;;;5.80;99.90;;;;;;5050718;28;20049;-59
2023/04/28 00:12:36;;;;;;;8.25;4.60;;;5.80;99.90;;;;;;5049734;28;20037;-59
2023/04/28 00:15:02;;;;;;;10.07;5.13;;;5.80;99.90;;;;;;5049475;28;20041;-59
2023/04/28 00:17:28;;;;;;;9.70;4.57;;;5.80;99.90;;;;;;5052034;28;20048;-59
2023/04/28 00:19:54;;;;;;;9.18;4.47;;;5.80;99.90;;;;;;5053637;28;20037;-59
2023/04/28 00:22:19;;;;;;;8.93;4.93;;;5.80;99.90;;;;;;5053850;28;20040;-59
2023/04/28 00:24:45;;;;;;;9.45;5.22;;;5.80;99.90;;;;;;5054924;28;20067;-59
2023/04/28 00:27:11;;;;;;;8.57;4.53;;;5.80;99.90;;;;;;5053758;28;20044;-59
2023/04/28 00:29:36;;;;;;;8.93;5.07;;;5.80;99.90;;;;;;5052111;28;20044;-59
2023/04/28 00:32:02;;;;;;;8.27;5.47;;;5.80;99.90;;;;;;5053699;28;20047;-59
2023/04/28 00:34:32;;;;;;;8.18;5.20;;;5.80;99.90;;;;;;5054076;28;20124;-59
2023/04/28 00:36:57;;;;;;;8.73;4.88;;;5.80;99.90;;;;;;5052998;28;20080;-59
2023/04/28 00:39:24;;;;;;;7.60;4.38;;;5.90;99.90;;;;;;5053815;28;20033;-59
2023/04/28 00:41:50;;;;;;;9.65;5.20;;;5.80;99.90;;;;;;5054660;28;20048;-59
2023/04/28 00:44:16;;;;;;;8.70;5.10;;;5.90;99.90;;;;;;5052623;28;20029;-59
2023/04/28 00:46:42;;;;;;;7.85;5.07;;;5.90;99.90;;;;;;5054320;28;20063;-60
2023/04/28 00:49:09;;;;;;;10.02;5.13;;;5.90;99.90;;;;;;5053094;28;20087;-59
2023/04/28 00:51:34;;;;;;;10.98;5.68;;;5.90;99.90;;;;;;5052046;28;20045;-59
2023/04/28 00:54:00;;;;;;;8.38;5.07;;;5.90;99.90;;;;;;5053255;28;20043;-60
2023/04/28 00:56:29;;;;;;;10.18;5.32;;;5.80;99.90;;;;;;5052914;28;20386;-60
2023/04/28 00:58:56;;;;;;;9.35;5.45;;;5.80;99.90;;;;;;5052490;28;20067;-60
2023/04/28 01:01:21;;;;;;;8.68;4.90;;;5.80;99.90;;;;;;5051965;28;20041;-59
2023/04/28 01:03:48;;;;;;;9.73;5.55;;;5.80;99.90;;;;;;5053954;28;20037;-60
2023/04/28 01:06:15;;;;;;;8.93;5.20;;;5.80;99.90;;;;;;5035447;28;20046;-59
2023/04/28 01:08:42;;;;;;;10.13;6.05;;;5.80;99.90;;;;;;5052227;28;20053;-60
2023/04/28 01:11:12;;;;;;;8.88;5.35;;;5.70;99.90;;;;;;5035405;28;20103;-60
2023/04/28 01:13:38;;;;;;;11.05;6.22;;;5.70;99.90;;;;;;5052581;28;20037;-59
2023/04/28 01:16:05;;;;;;;9.27;5.63;;;5.70;99.90;;;;;;5052793;28;20490;-59
2023/04/28 01:18:31;;;;;;;11.88;5.93;;;5.70;99.90;;;;;;5051380;28;20040;-59
2023/04/28 01:20:57;;;;;;;10.60;5.53;;;5.60;99.90;;;;;;5052509;28;20493;-60
2023/04/28 01:23:22;;;;;;;9.23;5.40;;;5.60;99.90;;;;;;5052280;28;20071;-60
2023/04/28 01:25:48;;;;;;;10.55;5.97;;;5.60;99.90;;;;;;5053195;28;20122;-59
2023/04/28 01:28:14;;;;;;;13.35;6.55;;;5.50;99.90;;;;;;5051960;28;20080;-59
2023/04/28 01:30:39;;;;;;;9.10;5.43;;;5.50;99.90;;;;;;5052191;28;20040;-59
2023/04/28 01:33:05;;;;;;;13.52;5.53;;;5.50;99.90;;;;;;5035119;28;20541;-58
2023/04/28 01:35:31;;;;;;;10.93;5.07;;;5.50;99.90;;;;;;5052934;28;20037;-59
2023/04/28 01:37:56;;;;;;;10.75;6.00;;;5.50;99.90;;;;;;5053702;28;20040;-59
2023/04/28 01:40:22;;;;;;;11.57;6.20;;;5.50;99.90;;;;;;5050835;28;20040;-59
2023/04/28 01:42:48;;;;;;;11.75;5.78;;;5.50;99.90;;;;;;5052568;28;20033;-59
2023/04/28 01:45:13;;;;;;;9.40;5.47;;;5.50;99.90;;;;;;5053487;28;20115;-59
2023/04/28 01:47:39;;;;;;;10.45;5.65;;;5.50;99.90;;;;;;5050952;28;20387;-59
2023/04/28 01:50:05;;;;;;;10.52;6.07;;;5.50;99.90;;;;;;5051978;28;20516;-59
2023/04/28 01:52:31;;;;;;;10.32;5.78;;;5.50;99.90;;;;;;5052884;28;20041;-59
2023/04/28 01:54:56;;;;;;;10.15;6.20;;;5.50;99.90;;;;;;5051247;28;20091;-59
2023/04/28 01:57:22;;;;;;;8.95;5.93;;;5.50;99.90;;;;;;5034813;28;20045;-59
2023/04/28 01:59:48;;;;;;;9.85;5.63;;;5.50;99.90;;;;;;5051764;28;20041;-59
2023/04/28 02:02:13;;;;;;;10.13;6.18;;;5.50;99.90;;;;;;5034670;28;20050;-59
2023/04/28 02:04:39;;;;;;;9.35;5.75;;;5.50;99.90;;;;;;5051689;28;20482;-60
2023/04/28 02:07:06;;;;;;;9.77;5.88;;;5.50;99.90;;;;;;5052123;28;20044;-59
2023/04/28 02:09:32;;;;;;;10.10;5.78;;;5.50;99.90;;;;;;5051277;28;20462;-59
2023/04/28 02:12:01;;;;;;;10.82;5.32;;;5.50;99.90;;;;;;5051548;28;20556;-60
2023/04/28 02:14:31;;;;;;;11.77;5.60;;;5.50;99.90;;;;;;5051322;28;20037;-60
2023/04/28 02:16:58;;;;;;;10.27;5.60;;;5.50;99.90;;;;;;5035171;28;20041;-59
2023/04/28 02:19:24;;;;;;;11.20;6.47;;;5.50;99.90;;;;;;5050921;28;20037;-60
2023/04/28 02:21:49;;;;;;;10.60;6.05;;;5.50;99.90;;;;;;5052121;28;20512;-59
2023/04/28 02:24:15;;;;;;;10.27;6.03;;;5.50;99.90;;;;;;5051312;28;20071;-60
2023/04/28 02:26:41;;;;;;;9.77;5.93;;;5.50;99.90;;;;;;5051384;28;20041;-60
2023/04/28 02:29:06;;;;;;;9.13;5.50;;;5.50;99.90;;;;;;5050743;28;20088;-59
2023/04/28 02:31:32;;;;;;;11.88;7.63;;;5.50;99.90;;;;;;5050521;28;20041;-60
2023/04/28 02:33:58;;;;;;;11.10;7.50;;;5.50;99.90;;;;;;5052611;28;20035;-60
2023/04/28 02:36:24;;;;;;;9.40;6.13;;;5.50;99.90;;;;;;5051106;28;20124;-59
2023/04/28 02:38:49;;;;;;;13.48;6.38;;;5.50;99.90;;;;;;5051386;28;20124;-59
2023/04/28 02:41:15;;;;;;;13.07;6.45;;;5.50;99.90;;;;;;5050006;28;20382;-59
2023/04/28 02:43:41;;;;;;;11.52;6.50;;;5.50;99.90;;;;;;5050085;28;20138;-60
2023/04/28 02:46:06;;;;;;;13.07;7.63;;;5.60;99.90;;;;;;5052307;28;20041;-59
2023/04/28 02:48:34;;;;;;;10.65;6.20;;;5.60;99.90;;;;;;5051964;28;20037;-59
2023/04/28 02:51:00;;;;;;;11.80;6.50;;;5.60;99.90;;;;;;5051465;28;20099;-59
2023/04/28 02:53:26;;;;;;;10.77;6.40;;;5.70;99.90;;;;;;5050502;28;20047;-59
2023/04/28 02:55:52;;;;;;;14.02;7.28;;;5.70;99.90;;;;;;5052190;28;20045;-59
2023/04/28 02:58:18;;;;;;;10.48;6.28;;;5.70;99.90;;;;;;5050078;28;20397;-59
2023/04/28 03:00:44;;;;;;;12.38;6.82;;;5.70;99.90;;;;;;5034167;28;20128;-59
2023/04/28 03:03:10;;;;;;;10.07;6.20;;;5.70;99.90;;;;;;5052173;28;20485;-59
2023/04/28 03:05:35;;;;;;;11.80;6.57;;;5.70;99.90;;;;;;5032728;28;20117;-59
2023/04/28 03:08:01;;;;;;;9.73;6.38;;;5.70;99.90;;;;;;5052044;28;20041;-59
2023/04/28 03:10:27;;;;;;;15.57;6.93;;;5.80;99.90;;;;;;5050049;28;20063;-59
2023/04/28 03:12:52;;;;;;;14.35;7.95;;;5.70;99.90;;;;;;5050200;28;20041;-59
2023/04/28 03:15:18;;;;;;;13.23;7.45;;;5.70;99.90;;;;;;5050131;28;20486;-59
2023/04/28 03:17:44;;;;;;;13.02;7.50;;;5.70;99.90;;;;;;5033559;28;20044;-59
2023/04/28 03:20:10;;;;;;;11.80;7.65;;;5.70;99.90;;;;;;5052044;28;20557;-59
2023/04/28 03:22:36;;;;;;;13.88;7.68;;;5.70;99.90;;;;;;5050236;28;20044;-59
2023/04/28 03:25:02;;;;;;;14.05;7.78;;;5.70;99.90;;;;;;5033289;28;20496;-59
2023/04/28 03:27:28;;;;;;;13.70;7.07;;;5.70;99.90;;;;;;5033349;28;20047;-59
2023/04/28 03:29:53;;;;;;;12.32;6.90;;;5.70;99.90;;;;;;5052184;28;20045;-59
2023/04/28 03:32:19;;;;;;;13.93;7.60;;;5.70;99.90;;;;;;5049460;28;20037;-60
2023/04/28 03:34:45;;;;;;;12.68;7.80;;;5.70;99.90;;;;;;5051642;28;20120;-60
2023/04/28 03:37:11;;;;;;;12.80;7.50;;;5.70;99.90;;;;;;5050462;28;20067;-60
2023/04/28 03:39:36;;;;;;;18.35;8.40;;;5.70;99.90;;;;;;5048988;28;20037;-60
2023/04/28 03:42:02;;;;;;;12.90;7.57;;;5.70;99.90;;;;;;5050433;28;20040;-60
2023/04/28 03:44:28;;;;;;;15.80;8.27;;;5.70;99.90;;;;;;5051382;28;20041;-60
2023/04/28 03:46:53;;;;;;;16.70;8.93;;;5.70;99.90;;;;;;5033179;28;20478;-60
2023/04/28 03:49:19;;;;;;;16.60;8.85;;;5.80;99.90;;;;;;5050291;28;20071;-59
2023/04/28 03:51:45;;;;;;;19.40;9.55;;;5.80;99.90;;;;;;5051369;28;20468;-59
2023/04/28 03:54:11;;;;;;;18.88;12.48;;;5.80;99.90;;;;;;5052998;28;20036;-59
2023/04/28 03:56:37;;;;;;;19.48;11.13;;;5.80;99.90;;;;;;5053430;28;20072;-60
2023/04/28 03:59:02;;;;;;;14.10;10.30;;;5.80;99.90;;;;;;5054376;28;20120;-60
2023/04/28 04:01:28;;;;;;;15.88;9.15;;;5.80;99.90;;;;;;5052837;28;20512;-59
2023/04/28 04:03:53;;;;;;;18.55;11.00;;;5.80;99.90;;;;;;5055597;28;20048;-59
2023/04/28 04:06:20;;;;;;;17.05;9.20;;;5.90;99.90;;;;;;5053599;28;20048;-60
2023/04/28 04:08:46;;;;;;;17.92;10.95;;;5.90;99.90;;;;;;5052831;28;20144;-60
2023/04/28 04:11:11;;;;;;;16.50;9.20;;;5.90;99.90;;;;;;5054268;28;20582;-59
2023/04/28 04:13:37;;;;;;;16.20;9.63;;;5.90;99.90;;;;;;5036854;28;20123;-60
2023/04/28 04:16:03;;;;;;;16.48;9.90;;;5.90;99.90;;;;;;5054346;28;20401;-59
2023/04/28 04:18:29;;;;;;;15.30;9.95;;;5.90;99.90;;;;;;5053062;28;20421;-60
2023/04/28 04:20:56;;;;;;;19.88;10.90;;;5.90;99.90;;;;;;5055144;28;20390;-60
2023/04/28 04:23:22;;;;;;;15.95;9.75;;;5.90;99.90;;;;;;5053699;28;20048;-59
2023/04/28 04:25:48;;;;;;;17.20;10.88;;;5.90;99.90;;;;;;5053775;28;20489;-60
2023/04/28 04:28:14;;;;;;;15.50;10.00;;;5.90;99.90;;;;;;5054459;28;20068;-59
2023/04/28 04:30:40;;;;;;;19.48;10.13;;;5.90;99.90;;;;;;5053361;28;20048;-59
2023/04/28 04:33:05;;;;;;;15.68;9.40;;;5.90;99.90;;;;;;5053733;28;20425;-59
2023/04/28 04:35:31;;;;;;;18.27;11.27;;;5.90;99.90;;;;;;5051954;28;20037;-59
2023/04/28 04:37:57;;;;;;;17.88;10.75;;;5.90;99.90;;;;;;5053665;28;20037;-59
2023/04/28 04:40:23;;;;;;;16.92;10.02;;;5.90;99.90;;;;;;5053111;28;20098;-59
2023/04/28 04:42:49;;;;;;;48.58;28.40;;;5.90;99.90;;;;;;5054213;28;20040;-59
2023/04/28 04:45:14;;;;;;;35.47;21.70;;;5.90;99.90;;;;;;5053161;28;20383;-59
2023/04/28 04:47:40;;;;;;;43.63;27.77;;;5.90;99.90;;;;;;5053382;28;20051;-59
2023/04/28 04:50:07;;;;;;;27.05;17.83;;;6.00;99.90;;;;;;5053962;28;20482;-59
2023/04/28 04:52:32;;;;;;;24.85;17.83;;;5.90;99.90;;;;;;5036064;28;20051;-60
2023/04/28 04:54:59;;;;;;;24.63;17.38;;;6.00;99.90;;;;;;5054034;28;20116;-59
2023/04/28 04:57:24;;;;;;;22.90;14.48;;;6.00;99.90;;;;;;5051804;28;20474;-59
2023/04/28 04:59:50;;;;;;;20.15;12.85;;;6.00;99.90;;;;;;5053779;28;20094;-70
2023/04/28 05:02:16;;;;;;;20.17;16.35;;;6.10;99.90;;;;;;5052998;28;20071;-70
2023/04/28 05:04:42;;;;;;;16.67;11.77;;;6.10;99.90;;;;;;5051207;28;20037;-70
2023/04/28 05:07:07;;;;;;;22.08;14.32;;;6.10;99.90;;;;;;5052667;28;20554;-70
2023/04/28 05:09:33;;;;;;;23.05;13.30;;;6.10;99.90;;;;;;5053058;28;20056;-70
2023/04/28 05:11:59;;;;;;;18.88;12.70;;;6.10;99.90;;;;;;5052245;28;20040;-70
2023/04/28 05:14:25;;;;;;;20.45;13.25;;;6.10;99.90;;;;;;5053363;28;20056;-72
2023/04/28 05:16:51;;;;;;;21.08;14.35;;;6.20;99.90;;;;;;5052953;28;20169;-72
2023/04/28 05:19:17;;;;;;;24.85;14.25;;;6.20;99.90;;;;;;5051784;28;20512;-72
2023/04/28 05:21:42;;;;;;;17.80;12.27;;;6.20;99.90;;;;;;5035865;28;20131;-72
2023/04/28 05:24:08;;;;;;;20.35;12.00;;;6.30;99.90;;;;;;5036103;28;20394;-72
2023/04/28 05:26:35;;;;;;;18.70;11.40;;;6.30;99.90;;;;;;5034561;28;20655;-71
2023/04/28 05:29:01;;;;;;;18.83;10.93;;;6.30;99.90;;;;;;5053838;28;20494;-71
2023/04/28 05:31:31;;;;;;;25.90;16.75;;;6.30;99.90;;;;;;5052645;28;20174;-70
2023/04/28 05:33:57;;;;;;;23.60;16.35;;;6.40;99.90;;;;;;5036160;28;20045;-70
2023/04/28 05:36:23;;;;;;;18.65;12.52;;;6.40;99.90;;;;;;5051486;28;20428;-67
2023/04/28 05:38:49;;;;;;;18.58;11.35;;;6.40;99.90;;;;;;5052775;28;20040;-68
2023/04/28 05:41:15;;;;;;;16.58;10.93;;;6.40;99.90;;;;;;5035539;28;20041;-67
2023/04/28 05:43:40;;;;;;;15.15;9.55;;;6.50;99.90;;;;;;5052223;28;20099;-67
2023/04/28 05:46:06;;;;;;;16.27;11.18;;;6.50;99.90;;;;;;5051362;28;20040;-67
2023/04/28 05:48:32;;;;;;;18.02;10.43;;;6.50;99.90;;;;;;5034971;28;20040;-66
2023/04/28 05:50:57;;;;;;;17.10;10.25;;;6.60;99.90;;;;;;5051999;28;20123;-66
2023/04/28 05:53:23;;;;;;;16.27;9.88;;;6.60;99.90;;;;;;5050705;28;20452;-66
2023/04/28 05:55:49;;;;;;;17.10;10.05;;;6.60;99.90;;;;;;5053099;28;20033;-66
2023/04/28 05:58:14;;;;;;;17.55;10.25;;;6.60;99.90;;;;;;5053339;28;20112;-66
2023/04/28 06:00:40;;;;;;;37.40;20.73;;;6.70;99.90;;;;;;5051186;28;20041;-66
2023/04/28 06:03:09;;;;;;;34.33;20.80;;;6.70;99.90;;;;;;5035817;28;20504;-66
2023/04/28 06:05:36;;;;;;;46.33;25.15;;;6.80;99.90;;;;;;5052417;28;20477;-66
2023/04/28 06:08:02;;;;;;;28.48;16.95;;;6.80;99.90;;;;;;5051943;28;20043;-66
2023/04/28 06:10:28;;;;;;;19.73;10.68;;;6.80;99.90;;;;;;5034443;28;20052;-66
2023/04/28 06:12:53;;;;;;;17.52;10.60;;;6.90;99.90;;;;;;5035083;28;20413;-67
2023/04/28 06:15:19;;;;;;;16.58;9.23;;;6.90;99.90;;;;;;5050272;28;20094;-67
2023/04/28 06:17:45;;;;;;;20.40;10.60;;;7.00;99.90;;;;;;5051308;28;20053;-67
2023/04/28 06:20:12;;;;;;;16.48;9.40;;;7.00;99.90;;;;;;5051786;28;20037;-67
2023/04/28 06:22:39;;;;;;;15.30;10.00;;;7.10;99.90;;;;;;5050235;28;20119;-67
2023/04/28 06:25:05;;;;;;;14.20;9.05;;;7.10;99.90;;;;;;5051514;28;20055;-67
2023/04/28 06:27:31;;;;;;;15.23;8.68;;;7.10;99.90;;;;;;5052166;28;20045;-65
2023/04/28 06:29:58;;;;;;;13.32;8.38;;;7.10;99.90;;;;;;5050724;28;20052;-65
2023/04/28 06:32:23;;;;;;;13.40;8.65;;;7.10;99.90;;;;;;5052157;28;20091;-65
2023/04/28 06:34:49;;;;;;;15.00;9.98;;;7.10;99.90;;;;;;5033627;28;20563;-66
2023/04/28 06:37:15;;;;;;;17.38;9.98;;;7.10;99.90;;;;;;5034126;28;20493;-66
2023/04/28 06:39:40;;;;;;;16.00;8.65;;;7.20;99.90;;;;;;5051345;28;20067;-65
2023/04/28 06:42:06;;;;;;;15.90;8.85;;;7.20;99.90;;;;;;5049765;28;20068;-65
2023/04/28 06:44:32;;;;;;;13.30;8.70;;;7.20;99.90;;;;;;5029663;28;20029;-66
2023/04/28 06:46:57;;;;;;;13.93;9.77;;;7.20;99.90;;;;;;5048567;28;20099;-66
2023/04/28 06:49:23;;;;;;;17.55;9.70;;;7.20;99.90;;;;;;5049215;28;20033;-68
2023/04/28 06:51:48;;;;;;;14.20;9.07;;;7.30;99.90;;;;;;5050990;28;20371;-67
2023/04/28 06:54:15;;;;;;;13.90;8.38;;;7.40;99.90;;;;;;5050425;28;20047;-67
2023/04/28 06:56:41;;;;;;;18.42;10.20;;;7.30;99.90;;;;;;5051183;28;20120;-68
2023/04/28 06:59:07;;;;;;;13.68;9.32;;;7.40;99.90;;;;;;5050902;28;20116;-68
2023/04/28 07:01:32;;;;;;;20.08;14.15;;;7.40;99.90;;;;;;5039943;28;20068;-68
2023/04/28 07:03:58;;;;;;;16.02;11.13;;;7.40;99.90;;;;;;5048565;28;20482;-68
2023/04/28 07:06:26;;;;;;;51.25;31.05;;;7.40;99.90;;;;;;5048876;28;20049;-69
2023/04/28 07:08:52;;;;;;;102.43;58.83;;;7.40;99.90;;;;;;5048039;28;20052;-67
2023/04/28 07:11:18;;;;;;;22.63;13.43;;;7.40;99.90;;;;;;5048555;28;20063;-68
2023/04/28 07:13:48;;;;;;;21.85;14.20;;;7.40;99.90;;;;;;5044497;28;20045;-68
2023/04/28 07:16:14;;;;;;;26.35;14.93;;;7.40;99.90;;;;;;5048240;28;20404;-68
2023/04/28 07:18:40;;;;;;;18.85;11.98;;;7.40;99.90;;;;;;5047212;28;20052;-69
2023/04/28 07:21:05;;;;;;;15.55;9.63;;;7.50;99.90;;;;;;5048247;28;20044;-69
2023/04/28 07:23:31;;;;;;;15.70;9.55;;;7.50;99.90;;;;;;5047552;28;20078;-69
2023/04/28 07:25:57;;;;;;;15.60;9.30;;;7.50;99.90;;;;;;5040146;28;20041;-68
2023/04/28 07:28:23;;;;;;;16.08;10.60;;;7.50;99.90;;;;;;5032989;28;20540;-69
2023/04/28 07:30:49;;;;;;;17.30;10.60;;;7.60;99.90;;;;;;5052946;28;20041;-69
2023/04/28 07:33:14;;;;;;;16.70;11.07;;;7.60;99.90;;;;;;5033847;28;20155;-69
2023/04/28 07:35:40;;;;;;;13.48;9.45;;;7.60;99.90;;;;;;5051240;28;20041;-68
2023/04/28 07:38:06;;;;;;;17.30;9.35;;;7.60;99.90;;;;;;5050777;28;20044;-68
2023/04/28 07:40:31;;;;;;;20.10;11.80;;;7.60;99.90;;;;;;5051023;28;20163;-69
2023/04/28 07:42:57;;;;;;;18.48;10.63;;;7.60;99.90;;;;;;5052546;28;20079;-68
2023/04/28 07:45:23;;;;;;;20.85;15.32;;;7.60;99.90;;;;;;5049348;28;20029;-69
2023/04/28 07:47:48;;;;;;;16.15;8.73;;;7.70;99.90;;;;;;5035079;28;20037;-69
2023/04/28 07:50:15;;;;;;;16.98;11.45;;;7.60;99.90;;;;;;5051171;28;20045;-70
2023/04/28 07:52:40;;;;;;;16.20;10.82;;;7.60;99.90;;;;;;5052141;28;20277;-69
2023/04/28 07:55:06;;;;;;;16.95;10.65;;;7.60;99.90;;;;;;5052730;28;20051;-69
2023/04/28 07:57:32;;;;;;;16.63;10.10;;;7.70;99.90;;;;;;5052257;28;20029;-71
2023/04/28 07:59:58;;;;;;;16.83;10.65;;;7.60;99.90;;;;;;5051005;28;20560;-71
2023/04/28 08:02:24;;;;;;;18.58;10.98;;;7.70;99.90;;;;;;5050646;28;20091;-73
2023/04/28 08:04:50;;;;;;;16.52;10.48;;;7.70;99.90;;;;;;5051986;28;20049;-73
2023/04/28 08:07:16;;;;;;;15.48;9.27;;;7.60;99.90;;;;;;5052099;28;20462;-72
2023/04/28 08:09:45;;;;;;;18.02;10.63;;;7.60;99.90;;;;;;5052357;28;20552;-72
2023/04/28 08:12:12;;;;;;;18.65;11.63;;;7.60;99.90;;;;;;5050811;28;20102;-72
2023/04/28 08:14:37;;;;;;;16.48;9.70;;;7.60;99.90;;;;;;5051415;28;20080;-72
2023/04/28 08:17:03;;;;;;;17.92;10.55;;;7.60;99.90;;;;;;5035368;28;20083;-71
2023/04/28 08:19:29;;;;;;;17.67;11.10;;;7.60;99.90;;;;;;5051782;28;20048;-72
2023/04/28 08:21:54;;;;;;;17.88;10.48;;;7.60;99.90;;;;;;5051485;28;20036;-73
2023/04/28 08:24:20;;;;;;;14.05;9.82;;;7.70;99.90;;;;;;5051325;28;20512;-72
2023/04/28 08:26:46;;;;;;;15.40;10.55;;;7.80;99.90;;;;;;5035746;28;20487;-72
2023/04/28 08:29:11;;;;;;;16.77;10.32;;;7.90;99.90;;;;;;5051803;28;20051;-71
2023/04/28 08:31:37;;;;;;;15.40;10.95;;;8.00;99.90;;;;;;5051146;28;20056;-71
2023/04/28 08:34:03;;;;;;;15.48;10.50;;;8.10;99.90;;;;;;5053280;28;20462;-74
2023/04/28 08:36:31;;;;;;;15.10;10.07;;;8.10;99.90;;;;;;5051333;28;20527;-74
2023/04/28 08:38:58;;;;;;;17.92;9.80;;;8.20;99.90;;;;;;5051328;28;20048;-73
2023/04/28 08:41:26;;;;;;;16.17;10.23;;;8.20;99.90;;;;;;5049315;28;20049;-68
2023/04/28 08:43:53;;;;;;;16.05;9.95;;;8.20;99.90;;;;;;5050324;28;20044;-68
2023/04/28 08:46:21;;;;;;;14.77;11.13;;;8.30;99.90;;;;;;5050134;28;20139;-69
2023/04/28 08:48:48;;;;;;;15.50;10.65;;;8.40;99.90;;;;;;5050265;28;20805;-68
2023/04/28 08:51:37;;;;;;;17.40;9.70;;;8.40;99.90;;;;;;5050606;28;20497;-68
2023/04/28 08:54:04;;;;;;;15.13;10.50;;;8.50;99.90;;;;;;5047257;28;20056;-68
2023/04/28 08:56:33;;;;;;;16.60;9.57;;;8.60;99.90;;;;;;5050616;28;20076;-68
2023/04/28 08:59:03;;;;;;;21.08;11.77;;;8.60;99.90;;;;;;5050326;28;20074;-69
2023/04/28 09:01:30;;;;;;;22.83;11.57;;;8.60;99.90;;;;;;5049461;28;20045;-69
2023/04/28 09:03:56;;;;;;;17.77;12.20;;;8.70;99.90;;;;;;5032128;28;20041;-69
2023/04/28 09:06:22;;;;;;;16.88;11.10;;;8.70;99.90;;;;;;5033150;28;20052;-70
2023/04/28 09:08:47;;;;;;;18.10;11.52;;;8.80;99.90;;;;;;5051299;28;20131;-70
2023/04/28 09:11:15;;;;;;;15.10;10.23;;;8.90;99.90;;;;;;5050557;28;20508;-73
2023/04/28 09:13:42;;;;;;;15.18;10.25;;;8.90;99.90;;;;;;5048287;28;20049;-72
2023/04/28 09:16:07;;;;;;;14.27;9.98;;;8.90;99.90;;;;;;5050453;28;20398;-70
2023/04/28 09:18:33;;;;;;;14.77;9.48;;;9.00;99.90;;;;;;5049276;28;20077;-77
2023/04/28 09:21:09;;;;;;;15.00;9.88;;;9.00;99.90;;;;;;5035303;28;20037;-79
2023/04/28 09:23:49;;;;;;;16.17;9.75;;;9.10;99.90;;;;;;5035222;28;20040;-79
2023/04/28 09:26:15;;;;;;;14.25;9.60;;;9.20;99.90;;;;;;5050474;28;20044;-69
2023/04/28 09:28:41;;;;;;;15.40;10.35;;;9.40;99.90;;;;;;5050651;28;20462;-75
2023/04/28 09:31:24;;;;;;;17.58;10.82;;;9.50;99.90;;;;;;5050130;28;20393;-71
2023/04/28 09:33:57;;;;;;;19.33;12.95;;;9.70;99.90;;;;;;5052673;28;20055;-74
2023/04/28 09:36:28;;;;;;;19.85;11.52;;;9.80;99.90;;;;;;5051207;28;20041;-68
2023/04/28 09:38:56;;;;;;;29.23;18.30;;;9.90;99.90;;;;;;5034634;28;20033;-73
2023/04/28 09:41:39;;;;;;;18.90;12.65;;;10.00;99.90;;;;;;5035032;28;20040;-71
2023/04/28 09:44:16;;;;;;;28.90;17.67;;;10.00;99.90;;;;;;5049171;28;20398;-71
2023/04/28 09:46:43;;;;;;;17.80;12.65;;;10.10;99.90;;;;;;5040402;28;20051;-71
2023/04/28 09:49:10;;;;;;;53.65;33.95;;;10.30;99.90;;;;;;5051696;28;20041;-71
2023/04/28 09:51:35;;;;;;;20.63;13.18;;;10.40;99.90;;;;;;5051685;28;20051;-74
2023/04/28 09:54:02;;;;;;;17.60;13.07;;;10.50;99.90;;;;;;5051880;28;20441;-71
2023/04/28 09:56:29;;;;;;;17.23;10.18;;;10.60;99.90;;;;;;5050769;28;20493;-70
2023/04/28 09:59:00;;;;;;;14.60;10.25;;;10.70;99.90;;;;;;5033734;28;20033;-70
2023/04/28 10:01:40;;;;;;;19.60;13.43;;;10.70;99.90;;;;;;5050365;28;20520;-70
2023/04/28 10:04:07;;;;;;;15.23;10.75;;;10.70;99.90;;;;;;5051670;28;20539;-70
2023/04/28 10:06:35;;;;;;;16.17;10.02;;;10.60;99.90;;;;;;5051232;28;20135;-69
2023/04/28 10:09:02;;;;;;;20.83;15.43;;;10.60;99.90;;;;;;5050724;28;20033;-69
2023/04/28 10:11:29;;;;;;;20.63;14.75;;;10.40;99.90;;;;;;5033776;28;20047;-69
2023/04/28 10:13:55;;;;;;;20.85;13.15;;;10.40;99.90;;;;;;5033296;28;20088;-69
2023/04/28 10:16:22;;;;;;;21.10;11.85;;;10.40;99.90;;;;;;5050038;28;20044;-69
2023/04/28 10:18:49;;;;;;;19.75;12.40;;;10.30;99.90;;;;;;5052150;28;20076;-70
2023/04/28 10:21:17;;;;;;;18.52;13.48;;;10.30;99.90;;;;;;5051476;28;20044;-70
2023/04/28 10:24:02;;;;;;;21.40;13.02;;;10.30;99.90;;;;;;5050716;28;20083;-72
2023/04/28 10:26:52;;;;;;;20.80;15.53;;;10.20;99.90;;;;;;5041944;28;20057;-72
2023/04/28 10:29:26;;;;;;;23.60;16.45;;;10.10;99.90;;;;;;5050687;28;20366;-73
2023/04/28 10:32:17;;;;;;;19.27;14.80;;;10.00;99.90;;;;;;5052658;28;20120;-73
2023/04/28 10:34:43;;;;;;;20.58;14.10;;;10.00;99.90;;;;;;5049979;28;20516;-73
2023/04/28 10:37:09;;;;;;;19.27;13.93;;;9.90;99.90;;;;;;5051361;28;20083;-72
2023/04/28 10:39:35;;;;;;;18.20;12.52;;;9.90;99.90;;;;;;5051312;28;20040;-75
2023/04/28 10:42:01;;;;;;;19.17;13.85;;;9.80;99.90;;;;;;5052028;28;20072;-76
2023/04/28 10:44:27;;;;;;;17.25;12.60;;;9.80;99.90;;;;;;5049817;28;20520;-77
2023/04/28 10:47:05;;;;;;;21.67;13.70;;;9.70;99.90;;;;;;5052003;28;20555;-77
2023/04/28 10:49:56;;;;;;;21.30;14.68;;;9.80;99.90;;;;;;5048239;28;20732;-76
2023/04/28 10:52:40;;;;;;;18.55;13.30;;;9.90;99.90;;;;;;5049299;28;20036;-76
2023/04/28 10:55:35;;;;;;;19.38;13.38;;;9.90;99.90;;;;;;5047660;28;20127;-75
2023/04/28 10:58:24;;;;;;;17.23;11.83;;;10.10;99.90;;;;;;5032895;28;20055;-75
2023/04/28 11:00:52;;;;;;;27.30;14.68;;;10.10;99.90;;;;;;5029775;28;20311;-76
2023/04/28 11:03:46;;;;;;;17.48;13.32;;;10.10;99.90;;;;;;5048759;28;20048;-74
2023/04/28 11:06:33;;;;;;;17.48;12.75;;;10.10;99.90;;;;;;5029484;28;20044;-75
2023/04/28 11:09:01;;;;;;;17.30;13.20;;;10.10;99.90;;;;;;5032446;28;20048;-75
2023/04/28 11:11:28;;;;;;;25.60;16.27;;;10.10;99.90;;;;;;5050336;28;20533;-75
2023/04/28 11:14:18;;;;;;;26.85;20.38;;;10.00;99.90;;;;;;5049880;28;20442;-75
2023/04/28 11:17:04;;;;;;;23.35;15.75;;;10.00;99.90;;;;;;5045086;28;20045;-75
2023/04/28 11:19:38;;;;;;;39.78;28.42;;;10.00;99.90;;;;;;5040926;28;20490;-76
2023/04/28 11:22:10;;;;;;;21.08;15.52;;;10.00;99.90;;;;;;5050115;28;20041;-75
2023/04/28 11:24:36;;;;;;;19.63;14.73;;;9.90;99.90;;;;;;5048609;28;20037;-73
2023/04/28 11:27:03;;;;;;;20.38;13.45;;;9.90;99.90;;;;;;5050883;28;20514;-72
2023/04/28 11:29:37;;;;;;;20.75;15.95;;;9.90;99.90;;;;;;5049499;28;20052;-73
2023/04/28 11:32:04;;;;;;;21.50;16.95;;;9.90;99.90;;;;;;5048868;28;20127;-72
2023/04/28 11:34:30;;;;;;;20.27;16.90;;;9.80;99.90;;;;;;5031896;28;20037;-72
2023/04/28 11:36:56;;;;;;;21.70;15.15;;;9.80;99.90;;;;;;5049993;28;20079;-72
2023/04/28 11:39:30;;;;;;;22.13;15.32;;;9.90;99.90;;;;;;5048200;28;20033;-72
2023/04/28 11:41:57;;;;;;;22.63;17.30;;;9.80;99.90;;;;;;5047155;28;20041;-72
2023/04/28 11:44:25;;;;;;;20.80;15.75;;;9.80;99.90;;;;;;5048445;28;20065;-72
2023/04/28 11:46:59;;;;;;;22.38;17.63;;;9.90;99.90;;;;;;5049558;28;20048;-72
2023/04/28 11:49:41;;;;;;;26.58;17.75;;;9.90;99.90;;;;;;5050216;28;20040;-72
2023/04/28 11:52:08;;;;;;;23.08;16.85;;;9.90;99.90;;;;;;5049107;28;20123;-70
2023/04/28 11:54:34;;;;;;;23.95;17.23;;;9.90;99.90;;;;;;5046526;28;20043;-70
2023/04/28 11:57:03;;;;;;;23.45;17.90;;;10.00;99.90;;;;;;5046989;28;20033;-71
2023/04/28 11:59:33;;;;;;;29.27;21.38;;;10.00;99.90;;;;;;5047214;28;20064;-71
2023/04/28 12:02:03;;;;;;;21.27;16.05;;;10.00;99.90;;;;;;5048812;28;20040;-70
2023/04/28 12:04:42;;;;;;;24.38;18.15;;;10.10;99.90;;;;;;5047129;28;20048;-71
2023/04/28 12:07:11;;;;;;;22.45;16.85;;;10.20;99.90;;;;;;5046877;28;20049;-71
2023/04/28 12:09:40;;;;;;;19.63;16.02;;;10.30;99.90;;;;;;5030172;28;20577;-71
2023/04/28 12:12:08;;;;;;;22.02;17.23;;;10.30;99.90;;;;;;5049096;28;20053;-70
2023/04/28 12:14:55;;;;;;;24.42;16.45;;;10.40;99.90;;;;;;5033166;28;20072;-68
2023/04/28 12:17:32;;;;;;;21.30;15.23;;;10.50;99.90;;;;;;5050435;28;20094;-68
2023/04/28 12:19:59;;;;;;;23.88;16.45;;;10.50;99.90;;;;;;5050612;28;20501;-68
2023/04/28 12:22:25;;;;;;;19.13;15.38;;;10.60;99.90;;;;;;5034242;28;20053;-69
2023/04/28 12:25:09;;;;;;;23.35;16.70;;;10.70;99.90;;;;;;5034456;28;20094;-69
2023/04/28 12:27:37;;;;;;;19.90;14.80;;;10.80;99.90;;;;;;5056108;28;20139;-71
2023/04/28 12:30:23;;;;;;;19.73;15.25;;;11.00;99.90;;;;;;5032890;28;20052;-74
2023/04/28 12:32:50;;;;;;;22.95;17.40;;;11.10;99.90;;;;;;5049316;28;20460;-73
2023/04/28 12:35:15;;;;;;;20.35;15.43;;;11.40;99.90;;;;;;5048188;28;20041;-71
2023/04/28 12:37:42;;;;;;;18.45;14.18;;;11.60;99.90;;;;;;5047718;28;20044;-71
2023/04/28 12:40:08;;;;;;;19.98;14.73;;;11.60;99.90;;;;;;5048717;28;20083;-74
2023/04/28 12:42:34;;;;;;;19.75;14.27;;;11.60;99.90;;;;;;5065147;28;20106;-74